sensor_id;sensor_type;location;lat;lon;timestamp;P1;P2;P0
49656;PMS5003;71194;38.900;-77.124;2023-07-28T00:00:09;13;12;
49656;PMS5003;71194;38.900;-77.124;2023-07-28T00:02:37;14;9;
49656;PMS5003;71194;38.900;-77.124;2023-07-28T00:05:05;11;10;
49656;PMS5003;71194;38.900;-77.124;2023-07-28T00:07:33;10;9;
49656;PMS5003;71194;38.900;-77.124;2023-07-28T00:10:02;10;10;
49656;PMS5003;71194;38.900;-77.124;2023-07-28T00:12:30;12;10;
49656;PMS5003;71194;38.900;-77.124;2023-07-28T00:14:57;10;10;
49656;PMS5003;71194;38.900;-77.124;2023-07-28T00:17:25;9;7;
49656;PMS5003;71194;38.900;-77.124;2023-07-28T00:19:53;10;9;
49656;PMS5003;71194;38.900;-77.124;2023-07-28T00:22:21;8;8;
49656;PMS5003;71194;38.900;-77.124;2023-07-28T00:24:49;13;11;
49656;PMS5003;71194;38.900;-77.124;2023-07-28T00:27:17;12;11;
49656;PMS5003;71194;38.900;-77.124;2023-07-28T00:29:45;10;9;
49656;PMS5003;71194;38.900;-77.124;2023-07-28T00:32:13;8;7;
49656;PMS5003;71194;38.900;-77.124;2023-07-28T00:34:40;6;6;
49656;PMS5003;71194;38.900;-77.124;2023-07-28T00:37:09;7;7;
49656;PMS5003;71194;38.900;-77.124;2023-07-28T00:39:36;7;7;
49656;PMS5003;71194;38.900;-77.124;2023-07-28T00:42:05;10;8;
49656;PMS5003;71194;38.900;-77.124;2023-07-28T00:44:33;8;8;
49656;PMS5003;71194;38.900;-77.124;2023-07-28T00:47:01;10;8;
49656;PMS5003;71194;38.900;-77.124;2023-07-28T00:49:29;10;10;
49656;PMS5003;71194;38.900;-77.124;2023-07-28T00:51:58;13;10;
49656;PMS5003;71194;38.900;-77.124;2023-07-28T00:54:26;10;8;
49656;PMS5003;71194;38.900;-77.124;2023-07-28T00:56:53;16;14;
49656;PMS5003;71194;38.900;-77.124;2023-07-28T00:59:22;15;11;
49656;PMS5003;71194;38.900;-77.124;2023-07-28T01:01:50;8;8;
49656;PMS5003;71194;38.900;-77.124;2023-07-28T01:04:18;9;9;
49656;PMS5003;71194;38.900;-77.124;2023-07-28T01:06:48;12;8;
49656;PMS5003;71194;38.900;-77.124;2023-07-28T01:09:25;8;8;
49656;PMS5003;71194;38.900;-77.124;2023-07-28T01:12:07;9;9;
49656;PMS5003;71194;38.900;-77.124;2023-07-28T01:14:35;13;10;
49656;PMS5003;71194;38.900;-77.124;2023-07-28T01:17:04;5;5;
49656;PMS5003;71194;38.900;-77.124;2023-07-28T01:19:32;5;5;
49656;PMS5003;71194;38.900;-77.124;2023-07-28T01:22:13;7;6;
49656;PMS5003;71194;38.900;-77.124;2023-07-28T01:24:55;9;6;
49656;PMS5003;71194;38.900;-77.124;2023-07-28T01:27:31;10;9;
49656;PMS5003;71194;38.900;-77.124;2023-07-28T01:29:59;7;6;
49656;PMS5003;71194;38.900;-77.124;2023-07-28T01:32:27;8;6;
49656;PMS5003;71194;38.900;-77.124;2023-07-28T01:34:55;9;8;
49656;PMS5003;71194;38.900;-77.124;2023-07-28T01:37:23;8;6;
49656;PMS5003;71194;38.900;-77.124;2023-07-28T01:39:51;7;7;
49656;PMS5003;71194;38.900;-77.124;2023-07-28T01:42:19;7;7;
49656;PMS5003;71194;38.900;-77.124;2023-07-28T01:44:47;7;7;
49656;PMS5003;71194;38.900;-77.124;2023-07-28T01:47:15;10;9;
49656;PMS5003;71194;38.900;-77.124;2023-07-28T01:49:43;7;7;
49656;PMS5003;71194;38.900;-77.124;2023-07-28T01:52:11;10;9;
49656;PMS5003;71194;38.900;-77.124;2023-07-28T01:54:39;7;7;
49656;PMS5003;71194;38.900;-77.124;2023-07-28T01:57:07;7;7;
49656;PMS5003;71194;38.900;-77.124;2023-07-28T01:59:35;10;8;
49656;PMS5003;71194;38.900;-77.124;2023-07-28T02:02:03;8;7;
49656;PMS5003;71194;38.900;-77.124;2023-07-28T02:04:30;7;7;
49656;PMS5003;71194;38.900;-77.124;2023-07-28T02:06:58;8;6;
49656;PMS5003;71194;38.900;-77.124;2023-07-28T02:09:26;9;7;
49656;PMS5003;71194;38.900;-77.124;2023-07-28T02:11:54;9;6;
49656;PMS5003;71194;38.900;-77.124;2023-07-28T02:14:22;6;6;
49656;PMS5003;71194;38.900;-77.124;2023-07-28T02:16:50;8;8;
49656;PMS5003;71194;38.900;-77.124;2023-07-28T02:19:18;6;6;
49656;PMS5003;71194;38.900;-77.124;2023-07-28T02:21:46;4;4;
49656;PMS5003;71194;38.900;-77.124;2023-07-28T02:24:14;9;7;
49656;PMS5003;71194;38.900;-77.124;2023-07-28T02:26:42;9;7;
49656;PMS5003;71194;38.900;-77.124;2023-07-28T02:29:10;6;6;
49656;PMS5003;71194;38.900;-77.124;2023-07-28T02:31:38;5;5;
49656;PMS5003;71194;38.900;-77.124;2023-07-28T02:34:05;6;5;
49656;PMS5003;71194;38.900;-77.124;2023-07-28T02:36:33;4;4;
49656;PMS5003;71194;38.900;-77.124;2023-07-28T02:39:01;8;6;
49656;PMS5003;71194;38.900;-77.124;2023-07-28T02:41:29;8;6;
49656;PMS5003;71194;38.900;-77.124;2023-07-28T02:43:57;9;7;
49656;PMS5003;71194;38.900;-77.124;2023-07-28T02:46:25;5;5;
49656;PMS5003;71194;38.900;-77.124;2023-07-28T02:48:53;7;4;
49656;PMS5003;71194;38.900;-77.124;2023-07-28T02:51:21;7;6;
49656;PMS5003;71194;38.900;-77.124;2023-07-28T02:53:49;4;4;
49656;PMS5003;71194;38.900;-77.124;2023-07-28T02:56:17;8;8;
49656;PMS5003;71194;38.900;-77.124;2023-07-28T02:58:45;7;6;
49656;PMS5003;71194;38.900;-77.124;2023-07-28T03:01:13;9;9;
49656;PMS5003;71194;38.900;-77.124;2023-07-28T03:03:41;7;7;
49656;PMS5003;71194;38.900;-77.124;2023-07-28T03:06:09;13;8;
49656;PMS5003;71194;38.900;-77.124;2023-07-28T03:08:37;4;4;
49656;PMS5003;71194;38.900;-77.124;2023-07-28T03:11:04;9;8;
49656;PMS5003;71194;38.900;-77.124;2023-07-28T03:13:32;6;5;
49656;PMS5003;71194;38.900;-77.124;2023-07-28T03:16:00;7;7;
49656;PMS5003;71194;38.900;-77.124;2023-07-28T03:18:28;8;6;
49656;PMS5003;71194;38.900;-77.124;2023-07-28T03:20:56;5;5;
49656;PMS5003;71194;38.900;-77.124;2023-07-28T03:23:24;5;5;
49656;PMS5003;71194;38.900;-77.124;2023-07-28T03:25:52;7;6;
49656;PMS5003;71194;38.900;-77.124;2023-07-28T03:28:19;5;5;
49656;PMS5003;71194;38.900;-77.124;2023-07-28T03:30:47;7;7;
49656;PMS5003;71194;38.900;-77.124;2023-07-28T03:33:15;6;6;
49656;PMS5003;71194;38.900;-77.124;2023-07-28T03:35:43;8;6;
49656;PMS5003;71194;38.900;-77.124;2023-07-28T03:38:11;6;6;
49656;PMS5003;71194;38.900;-77.124;2023-07-28T03:40:39;5;5;
49656;PMS5003;71194;38.900;-77.124;2023-07-28T03:43:07;10;9;
49656;PMS5003;71194;38.900;-77.124;2023-07-28T03:45:35;5;5;
49656;PMS5003;71194;38.900;-77.124;2023-07-28T03:48:03;10;10;
49656;PMS5003;71194;38.900;-77.124;2023-07-28T03:50:31;12;9;
49656;PMS5003;71194;38.900;-77.124;2023-07-28T03:52:59;9;9;
49656;PMS5003;71194;38.900;-77.124;2023-07-28T03:55:27;9;7;
49656;PMS5003;71194;38.900;-77.124;2023-07-28T03:57:54;9;9;
49656;PMS5003;71194;38.900;-77.124;2023-07-28T04:00:22;10;8;
49656;PMS5003;71194;38.900;-77.124;2023-07-28T04:02:50;9;8;
49656;PMS5003;71194;38.900;-77.124;2023-07-28T04:05:17;7;7;
49656;PMS5003;71194;38.900;-77.124;2023-07-28T04:07:45;10;8;
49656;PMS5003;71194;38.900;-77.124;2023-07-28T04:10:13;4;4;
49656;PMS5003;71194;38.900;-77.124;2023-07-28T04:12:41;9;7;
49656;PMS5003;71194;38.900;-77.124;2023-07-28T04:15:09;8;7;
49656;PMS5003;71194;38.900;-77.124;2023-07-28T04:17:37;9;9;
49656;PMS5003;71194;38.900;-77.124;2023-07-28T04:20:05;10;8;
49656;PMS5003;71194;38.900;-77.124;2023-07-28T04:22:34;8;6;
49656;PMS5003;71194;38.900;-77.124;2023-07-28T04:25:02;6;6;
49656;PMS5003;71194;38.900;-77.124;2023-07-28T04:27:30;8;6;
49656;PMS5003;71194;38.900;-77.124;2023-07-28T04:29:58;6;6;
49656;PMS5003;71194;38.900;-77.124;2023-07-28T04:32:26;7;7;
49656;PMS5003;71194;38.900;-77.124;2023-07-28T04:34:53;5;5;
49656;PMS5003;71194;38.900;-77.124;2023-07-28T04:37:21;8;7;
49656;PMS5003;71194;38.900;-77.124;2023-07-28T04:39:49;9;7;
49656;PMS5003;71194;38.900;-77.124;2023-07-28T04:42:17;8;8;
49656;PMS5003;71194;38.900;-77.124;2023-07-28T04:44:45;7;7;
49656;PMS5003;71194;38.900;-77.124;2023-07-28T04:47:13;8;7;
49656;PMS5003;71194;38.900;-77.124;2023-07-28T04:49:41;6;6;
49656;PMS5003;71194;38.900;-77.124;2023-07-28T04:52:09;7;7;
49656;PMS5003;71194;38.900;-77.124;2023-07-28T04:54:37;8;7;
49656;PMS5003;71194;38.900;-77.124;2023-07-28T04:57:05;6;5;
49656;PMS5003;71194;38.900;-77.124;2023-07-28T04:59:33;11;8;
49656;PMS5003;71194;38.900;-77.124;2023-07-28T05:02:01;9;9;
49656;PMS5003;71194;38.900;-77.124;2023-07-28T05:04:29;6;5;
49656;PMS5003;71194;38.900;-77.124;2023-07-28T05:06:57;9;8;
49656;PMS5003;71194;38.900;-77.124;2023-07-28T05:09:25;7;7;
49656;PMS5003;71194;38.900;-77.124;2023-07-28T05:11:53;6;6;
49656;PMS5003;71194;38.900;-77.124;2023-07-28T05:14:21;8;7;
49656;PMS5003;71194;38.900;-77.124;2023-07-28T05:16:49;9;7;
49656;PMS5003;71194;38.900;-77.124;2023-07-28T05:19:17;10;8;
49656;PMS5003;71194;38.900;-77.124;2023-07-28T05:21:45;8;6;
49656;PMS5003;71194;38.900;-77.124;2023-07-28T05:24:13;7;7;
49656;PMS5003;71194;38.900;-77.124;2023-07-28T05:26:41;9;9;
49656;PMS5003;71194;38.900;-77.124;2023-07-28T05:29:09;8;6;
49656;PMS5003;71194;38.900;-77.124;2023-07-28T05:31:36;9;9;
49656;PMS5003;71194;38.900;-77.124;2023-07-28T05:34:04;11;9;
49656;PMS5003;71194;38.900;-77.124;2023-07-28T05:36:32;11;9;
49656;PMS5003;71194;38.900;-77.124;2023-07-28T05:39:00;11;10;
49656;PMS5003;71194;38.900;-77.124;2023-07-28T05:41:28;7;7;
49656;PMS5003;71194;38.900;-77.124;2023-07-28T05:43:56;9;9;
49656;PMS5003;71194;38.900;-77.124;2023-07-28T05:46:25;8;8;
49656;PMS5003;71194;38.900;-77.124;2023-07-28T05:48:54;5;5;
49656;PMS5003;71194;38.900;-77.124;2023-07-28T05:51:21;10;8;
49656;PMS5003;71194;38.900;-77.124;2023-07-28T05:53:49;6;6;
49656;PMS5003;71194;38.900;-77.124;2023-07-28T05:56:17;12;9;
49656;PMS5003;71194;38.900;-77.124;2023-07-28T05:58:46;7;7;
49656;PMS5003;71194;38.900;-77.124;2023-07-28T06:01:14;10;8;
49656;PMS5003;71194;38.900;-77.124;2023-07-28T06:03:43;12;9;
49656;PMS5003;71194;38.900;-77.124;2023-07-28T06:06:11;6;5;
49656;PMS5003;71194;38.900;-77.124;2023-07-28T06:08:39;8;7;
49656;PMS5003;71194;38.900;-77.124;2023-07-28T06:11:07;6;6;
49656;PMS5003;71194;38.900;-77.124;2023-07-28T06:13:35;6;6;
49656;PMS5003;71194;38.900;-77.124;2023-07-28T06:16:02;7;5;
49656;PMS5003;71194;38.900;-77.124;2023-07-28T06:18:30;6;5;
49656;PMS5003;71194;38.900;-77.124;2023-07-28T06:20:58;7;7;
49656;PMS5003;71194;38.900;-77.124;2023-07-28T06:23:26;7;6;
49656;PMS5003;71194;38.900;-77.124;2023-07-28T06:25:54;7;7;
49656;PMS5003;71194;38.900;-77.124;2023-07-28T06:28:22;8;6;
49656;PMS5003;71194;38.900;-77.124;2023-07-28T06:30:53;6;6;
49656;PMS5003;71194;38.900;-77.124;2023-07-28T06:33:21;9;9;
49656;PMS5003;71194;38.900;-77.124;2023-07-28T06:35:49;8;8;
49656;PMS5003;71194;38.900;-77.124;2023-07-28T06:38:17;6;6;
49656;PMS5003;71194;38.900;-77.124;2023-07-28T06:40:45;7;6;
49656;PMS5003;71194;38.900;-77.124;2023-07-28T06:43:13;10;7;
49656;PMS5003;71194;38.900;-77.124;2023-07-28T06:45:41;6;5;
49656;PMS5003;71194;38.900;-77.124;2023-07-28T06:48:08;9;9;
49656;PMS5003;71194;38.900;-77.124;2023-07-28T06:50:36;9;9;
49656;PMS5003;71194;38.900;-77.124;2023-07-28T06:53:04;11;10;
49656;PMS5003;71194;38.900;-77.124;2023-07-28T06:55:32;11;9;
49656;PMS5003;71194;38.900;-77.124;2023-07-28T06:57:59;10;8;
49656;PMS5003;71194;38.900;-77.124;2023-07-28T07:00:27;7;7;
49656;PMS5003;71194;38.900;-77.124;2023-07-28T07:02:55;8;8;
49656;PMS5003;71194;38.900;-77.124;2023-07-28T07:05:23;9;8;
49656;PMS5003;71194;38.900;-77.124;2023-07-28T07:07:51;6;6;
49656;PMS5003;71194;38.900;-77.124;2023-07-28T07:10:18;8;7;
49656;PMS5003;71194;38.900;-77.124;2023-07-28T07:12:46;8;8;
49656;PMS5003;71194;38.900;-77.124;2023-07-28T07:15:14;10;9;
49656;PMS5003;71194;38.900;-77.124;2023-07-28T07:17:42;9;8;
49656;PMS5003;71194;38.900;-77.124;2023-07-28T07:20:10;7;6;
49656;PMS5003;71194;38.900;-77.124;2023-07-28T07:22:39;7;7;
49656;PMS5003;71194;38.900;-77.124;2023-07-28T07:25:07;8;8;
49656;PMS5003;71194;38.900;-77.124;2023-07-28T07:27:35;7;6;
49656;PMS5003;71194;38.900;-77.124;2023-07-28T07:30:02;5;5;
49656;PMS5003;71194;38.900;-77.124;2023-07-28T07:32:32;7;6;
49656;PMS5003;71194;38.900;-77.124;2023-07-28T07:35:00;4;4;
49656;PMS5003;71194;38.900;-77.124;2023-07-28T07:37:27;6;5;
49656;PMS5003;71194;38.900;-77.124;2023-07-28T07:39:56;9;9;
49656;PMS5003;71194;38.900;-77.124;2023-07-28T07:42:24;8;7;
49656;PMS5003;71194;38.900;-77.124;2023-07-28T07:44:52;7;7;
49656;PMS5003;71194;38.900;-77.124;2023-07-28T07:47:19;8;7;
49656;PMS5003;71194;38.900;-77.124;2023-07-28T07:49:47;6;6;
49656;PMS5003;71194;38.900;-77.124;2023-07-28T07:52:15;9;9;
49656;PMS5003;71194;38.900;-77.124;2023-07-28T07:54:43;5;5;
49656;PMS5003;71194;38.900;-77.124;2023-07-28T07:57:11;4;4;
49656;PMS5003;71194;38.900;-77.124;2023-07-28T07:59:39;14;8;
49656;PMS5003;71194;38.900;-77.124;2023-07-28T08:02:07;11;9;
49656;PMS5003;71194;38.900;-77.124;2023-07-28T08:04:35;9;8;
49656;PMS5003;71194;38.900;-77.124;2023-07-28T08:07:02;11;9;
49656;PMS5003;71194;38.900;-77.124;2023-07-28T08:09:30;6;6;
49656;PMS5003;71194;38.900;-77.124;2023-07-28T08:11:58;6;6;
49656;PMS5003;71194;38.900;-77.124;2023-07-28T08:14:27;5;5;
49656;PMS5003;71194;38.900;-77.124;2023-07-28T08:16:55;7;7;
49656;PMS5003;71194;38.900;-77.124;2023-07-28T08:19:23;10;9;
49656;PMS5003;71194;38.900;-77.124;2023-07-28T08:21:51;7;7;
49656;PMS5003;71194;38.900;-77.124;2023-07-28T08:24:19;9;9;
49656;PMS5003;71194;38.900;-77.124;2023-07-28T08:26:47;7;7;
49656;PMS5003;71194;38.900;-77.124;2023-07-28T08:29:15;11;9;
49656;PMS5003;71194;38.900;-77.124;2023-07-28T08:31:43;9;8;
49656;PMS5003;71194;38.900;-77.124;2023-07-28T08:34:11;7;6;
49656;PMS5003;71194;38.900;-77.124;2023-07-28T08:36:39;8;8;
49656;PMS5003;71194;38.900;-77.124;2023-07-28T08:39:07;11;9;
49656;PMS5003;71194;38.900;-77.124;2023-07-28T08:41:35;8;7;
49656;PMS5003;71194;38.900;-77.124;2023-07-28T08:44:03;9;9;
49656;PMS5003;71194;38.900;-77.124;2023-07-28T08:46:31;8;6;
49656;PMS5003;71194;38.900;-77.124;2023-07-28T08:48:59;8;7;
49656;PMS5003;71194;38.900;-77.124;2023-07-28T08:51:26;7;6;
49656;PMS5003;71194;38.900;-77.124;2023-07-28T08:53:54;6;6;
49656;PMS5003;71194;38.900;-77.124;2023-07-28T08:56:22;9;9;
49656;PMS5003;71194;38.900;-77.124;2023-07-28T08:58:55;9;9;
49656;PMS5003;71194;38.900;-77.124;2023-07-28T09:01:24;5;5;
49656;PMS5003;71194;38.900;-77.124;2023-07-28T09:03:52;6;6;
49656;PMS5003;71194;38.900;-77.124;2023-07-28T09:06:23;9;9;
49656;PMS5003;71194;38.900;-77.124;2023-07-28T09:08:56;7;7;
49656;PMS5003;71194;38.900;-77.124;2023-07-28T09:11:24;7;6;
49656;PMS5003;71194;38.900;-77.124;2023-07-28T09:13:51;9;8;
49656;PMS5003;71194;38.900;-77.124;2023-07-28T09:16:20;6;6;
49656;PMS5003;71194;38.900;-77.124;2023-07-28T09:18:48;6;6;
49656;PMS5003;71194;38.900;-77.124;2023-07-28T09:21:16;9;9;
49656;PMS5003;71194;38.900;-77.124;2023-07-28T09:23:45;5;5;
49656;PMS5003;71194;38.900;-77.124;2023-07-28T09:26:13;10;9;
49656;PMS5003;71194;38.900;-77.124;2023-07-28T09:28:42;6;6;
49656;PMS5003;71194;38.900;-77.124;2023-07-28T09:31:10;8;8;
49656;PMS5003;71194;38.900;-77.124;2023-07-28T09:33:38;11;9;
49656;PMS5003;71194;38.900;-77.124;2023-07-28T09:36:08;8;7;
49656;PMS5003;71194;38.900;-77.124;2023-07-28T09:38:38;7;7;
49656;PMS5003;71194;38.900;-77.124;2023-07-28T09:41:07;9;8;
49656;PMS5003;71194;38.900;-77.124;2023-07-28T09:43:37;14;11;
49656;PMS5003;71194;38.900;-77.124;2023-07-28T09:46:07;8;7;
49656;PMS5003;71194;38.900;-77.124;2023-07-28T09:48:36;10;8;
49656;PMS5003;71194;38.900;-77.124;2023-07-28T09:51:06;10;8;
49656;PMS5003;71194;38.900;-77.124;2023-07-28T09:53:45;7;7;
49656;PMS5003;71194;38.900;-77.124;2023-07-28T09:56:16;7;7;
49656;PMS5003;71194;38.900;-77.124;2023-07-28T09:58:48;7;7;
49656;PMS5003;71194;38.900;-77.124;2023-07-28T10:01:19;9;9;
49656;PMS5003;71194;38.900;-77.124;2023-07-28T10:03:47;7;5;
49656;PMS5003;71194;38.900;-77.124;2023-07-28T10:06:15;10;8;
49656;PMS5003;71194;38.900;-77.124;2023-07-28T10:08:43;10;10;
49656;PMS5003;71194;38.900;-77.124;2023-07-28T10:11:12;17;14;
49656;PMS5003;71194;38.900;-77.124;2023-07-28T10:13:42;21;19;
49656;PMS5003;71194;38.900;-77.124;2023-07-28T10:16:11;19;18;
49656;PMS5003;71194;38.900;-77.124;2023-07-28T10:18:39;19;15;
49656;PMS5003;71194;38.900;-77.124;2023-07-28T10:21:08;14;11;
49656;PMS5003;71194;38.900;-77.124;2023-07-28T10:23:36;14;11;
49656;PMS5003;71194;38.900;-77.124;2023-07-28T10:26:04;11;11;
49656;PMS5003;71194;38.900;-77.124;2023-07-28T10:28:33;11;9;
49656;PMS5003;71194;38.900;-77.124;2023-07-28T10:31:04;12;9;
49656;PMS5003;71194;38.900;-77.124;2023-07-28T10:33:33;14;8;
49656;PMS5003;71194;38.900;-77.124;2023-07-28T10:36:11;9;9;
49656;PMS5003;71194;38.900;-77.124;2023-07-28T10:38:40;13;10;
49656;PMS5003;71194;38.900;-77.124;2023-07-28T10:41:09;8;8;
49656;PMS5003;71194;38.900;-77.124;2023-07-28T10:43:39;6;6;
49656;PMS5003;71194;38.900;-77.124;2023-07-28T10:46:08;8;6;
49656;PMS5003;71194;38.900;-77.124;2023-07-28T10:48:37;7;7;
49656;PMS5003;71194;38.900;-77.124;2023-07-28T10:51:08;6;6;
49656;PMS5003;71194;38.900;-77.124;2023-07-28T10:53:36;27;22;
49656;PMS5003;71194;38.900;-77.124;2023-07-28T10:56:05;33;26;
49656;PMS5003;71194;38.900;-77.124;2023-07-28T10:58:33;24;21;
49656;PMS5003;71194;38.900;-77.124;2023-07-28T11:01:01;21;18;
49656;PMS5003;71194;38.900;-77.124;2023-07-28T11:03:29;18;17;
49656;PMS5003;71194;38.900;-77.124;2023-07-28T11:05:57;20;16;
49656;PMS5003;71194;38.900;-77.124;2023-07-28T11:08:25;14;11;
49656;PMS5003;71194;38.900;-77.124;2023-07-28T11:10:53;12;11;
49656;PMS5003;71194;38.900;-77.124;2023-07-28T11:13:20;8;8;
49656;PMS5003;71194;38.900;-77.124;2023-07-28T11:15:49;7;7;
49656;PMS5003;71194;38.900;-77.124;2023-07-28T11:18:17;10;10;
49656;PMS5003;71194;38.900;-77.124;2023-07-28T11:20:45;11;7;
49656;PMS5003;71194;38.900;-77.124;2023-07-28T11:23:13;10;8;
49656;PMS5003;71194;38.900;-77.124;2023-07-28T11:25:41;8;8;
49656;PMS5003;71194;38.900;-77.124;2023-07-28T11:28:10;10;10;
49656;PMS5003;71194;38.900;-77.124;2023-07-28T11:30:38;8;7;
49656;PMS5003;71194;38.900;-77.124;2023-07-28T11:33:08;9;9;
49656;PMS5003;71194;38.900;-77.124;2023-07-28T11:35:37;9;8;
49656;PMS5003;71194;38.900;-77.124;2023-07-28T11:38:05;7;7;
49656;PMS5003;71194;38.900;-77.124;2023-07-28T11:40:33;7;6;
49656;PMS5003;71194;38.900;-77.124;2023-07-28T11:43:01;7;7;
49656;PMS5003;71194;38.900;-77.124;2023-07-28T11:45:30;7;7;
49656;PMS5003;71194;38.900;-77.124;2023-07-28T11:47:59;7;7;
49656;PMS5003;71194;38.900;-77.124;2023-07-28T11:50:30;9;7;
49656;PMS5003;71194;38.900;-77.124;2023-07-28T11:53:01;12;9;
49656;PMS5003;71194;38.900;-77.124;2023-07-28T11:55:30;9;9;
49656;PMS5003;71194;38.900;-77.124;2023-07-28T11:57:58;11;8;
49656;PMS5003;71194;38.900;-77.124;2023-07-28T12:00:29;11;8;
49656;PMS5003;71194;38.900;-77.124;2023-07-28T12:03:01;10;8;
49656;PMS5003;71194;38.900;-77.124;2023-07-28T12:05:30;9;9;
49656;PMS5003;71194;38.900;-77.124;2023-07-28T12:07:58;13;11;
49656;PMS5003;71194;38.900;-77.124;2023-07-28T12:10:27;14;13;
49656;PMS5003;71194;38.900;-77.124;2023-07-28T12:12:55;17;16;
49656;PMS5003;71194;38.900;-77.124;2023-07-28T12:15:24;11;11;
49656;PMS5003;71194;38.900;-77.124;2023-07-28T12:18:10;11;11;
49656;PMS5003;71194;38.900;-77.124;2023-07-28T12:20:39;17;16;
49656;PMS5003;71194;38.900;-77.124;2023-07-28T12:23:08;19;15;
49656;PMS5003;71194;38.900;-77.124;2023-07-28T12:25:36;16;15;
49656;PMS5003;71194;38.900;-77.124;2023-07-28T12:28:04;11;11;
49656;PMS5003;71194;38.900;-77.124;2023-07-28T12:30:33;15;12;
49656;PMS5003;71194;38.900;-77.124;2023-07-28T12:33:01;15;12;
49656;PMS5003;71194;38.900;-77.124;2023-07-28T12:35:30;14;12;
49656;PMS5003;71194;38.900;-77.124;2023-07-28T12:37:59;10;10;
49656;PMS5003;71194;38.900;-77.124;2023-07-28T12:40:27;14;13;
49656;PMS5003;71194;38.900;-77.124;2023-07-28T12:42:55;18;12;
49656;PMS5003;71194;38.900;-77.124;2023-07-28T12:45:24;11;11;
49656;PMS5003;71194;38.900;-77.124;2023-07-28T12:47:52;10;10;
49656;PMS5003;71194;38.900;-77.124;2023-07-28T12:50:20;15;11;
49656;PMS5003;71194;38.900;-77.124;2023-07-28T12:52:48;12;11;
49656;PMS5003;71194;38.900;-77.124;2023-07-28T12:55:17;16;12;
49656;PMS5003;71194;38.900;-77.124;2023-07-28T12:57:45;14;13;
49656;PMS5003;71194;38.900;-77.124;2023-07-28T13:00:13;10;10;
49656;PMS5003;71194;38.900;-77.124;2023-07-28T13:02:41;20;15;
49656;PMS5003;71194;38.900;-77.124;2023-07-28T13:05:10;17;16;
49656;PMS5003;71194;38.900;-77.124;2023-07-28T13:07:39;23;21;
49656;PMS5003;71194;38.900;-77.124;2023-07-28T13:10:08;16;16;
49656;PMS5003;71194;38.900;-77.124;2023-07-28T13:12:36;17;13;
49656;PMS5003;71194;38.900;-77.124;2023-07-28T13:15:05;16;15;
49656;PMS5003;71194;38.900;-77.124;2023-07-28T13:17:33;12;11;
49656;PMS5003;71194;38.900;-77.124;2023-07-28T13:20:01;17;13;
49656;PMS5003;71194;38.900;-77.124;2023-07-28T13:22:29;18;14;
49656;PMS5003;71194;38.900;-77.124;2023-07-28T13:24:57;18;12;
49656;PMS5003;71194;38.900;-77.124;2023-07-28T13:27:25;19;16;
49656;PMS5003;71194;38.900;-77.124;2023-07-28T13:29:53;16;13;
49656;PMS5003;71194;38.900;-77.124;2023-07-28T13:32:23;19;14;
49656;PMS5003;71194;38.900;-77.124;2023-07-28T13:34:51;13;12;
49656;PMS5003;71194;38.900;-77.124;2023-07-28T13:37:19;11;10;
49656;PMS5003;71194;38.900;-77.124;2023-07-28T13:39:47;16;11;
49656;PMS5003;71194;38.900;-77.124;2023-07-28T13:42:15;10;10;
49656;PMS5003;71194;38.900;-77.124;2023-07-28T13:44:43;23;18;
49656;PMS5003;71194;38.900;-77.124;2023-07-28T13:47:11;22;15;
49656;PMS5003;71194;38.900;-77.124;2023-07-28T13:49:38;18;16;
49656;PMS5003;71194;38.900;-77.124;2023-07-28T13:52:06;18;14;
49656;PMS5003;71194;38.900;-77.124;2023-07-28T13:54:35;10;10;
49656;PMS5003;71194;38.900;-77.124;2023-07-28T13:57:02;19;19;
49656;PMS5003;71194;38.900;-77.124;2023-07-28T13:59:31;17;16;
49656;PMS5003;71194;38.900;-77.124;2023-07-28T14:01:59;21;16;
49656;PMS5003;71194;38.900;-77.124;2023-07-28T14:04:27;17;16;
49656;PMS5003;71194;38.900;-77.124;2023-07-28T14:06:54;14;12;
49656;PMS5003;71194;38.900;-77.124;2023-07-28T14:09:22;27;22;
49656;PMS5003;71194;38.900;-77.124;2023-07-28T14:11:50;19;18;
49656;PMS5003;71194;38.900;-77.124;2023-07-28T14:14:18;14;14;
49656;PMS5003;71194;38.900;-77.124;2023-07-28T14:16:46;18;15;
49656;PMS5003;71194;38.900;-77.124;2023-07-28T14:19:13;19;16;
49656;PMS5003;71194;38.900;-77.124;2023-07-28T14:21:41;14;14;
49656;PMS5003;71194;38.900;-77.124;2023-07-28T14:24:09;17;14;
49656;PMS5003;71194;38.900;-77.124;2023-07-28T14:26:37;20;16;
49656;PMS5003;71194;38.900;-77.124;2023-07-28T14:29:04;19;17;
49656;PMS5003;71194;38.900;-77.124;2023-07-28T14:31:33;20;18;
49656;PMS5003;71194;38.900;-77.124;2023-07-28T14:34:01;18;17;
49656;PMS5003;71194;38.900;-77.124;2023-07-28T14:36:29;23;20;
49656;PMS5003;71194;38.900;-77.124;2023-07-28T14:38:56;17;17;
49656;PMS5003;71194;38.900;-77.124;2023-07-28T14:41:23;26;21;
49656;PMS5003;71194;38.900;-77.124;2023-07-28T14:43:51;18;17;
49656;PMS5003;71194;38.900;-77.124;2023-07-28T14:46:19;20;17;
49656;PMS5003;71194;38.900;-77.124;2023-07-28T14:48:47;17;15;
49656;PMS5003;71194;38.900;-77.124;2023-07-28T14:51:15;16;15;
49656;PMS5003;71194;38.900;-77.124;2023-07-28T14:53:43;16;15;
49656;PMS5003;71194;38.900;-77.124;2023-07-28T14:56:11;14;14;
49656;PMS5003;71194;38.900;-77.124;2023-07-28T14:58:39;29;24;
49656;PMS5003;71194;38.900;-77.124;2023-07-28T15:01:07;19;19;
49656;PMS5003;71194;38.900;-77.124;2023-07-28T15:03:36;26;22;
49656;PMS5003;71194;38.900;-77.124;2023-07-28T15:06:05;28;22;
49656;PMS5003;71194;38.900;-77.124;2023-07-28T15:08:33;26;22;
49656;PMS5003;71194;38.900;-77.124;2023-07-28T15:11:00;20;18;
49656;PMS5003;71194;38.900;-77.124;2023-07-28T15:13:29;17;16;
49656;PMS5003;71194;38.900;-77.124;2023-07-28T15:15:57;22;16;
49656;PMS5003;71194;38.900;-77.124;2023-07-28T15:18:24;25;23;
49656;PMS5003;71194;38.900;-77.124;2023-07-28T15:20:53;24;21;
49656;PMS5003;71194;38.900;-77.124;2023-07-28T15:23:20;26;21;
49656;PMS5003;71194;38.900;-77.124;2023-07-28T15:25:48;19;19;
49656;PMS5003;71194;38.900;-77.124;2023-07-28T15:28:16;25;18;
49656;PMS5003;71194;38.900;-77.124;2023-07-28T15:30:44;23;21;
49656;PMS5003;71194;38.900;-77.124;2023-07-28T15:33:12;15;15;
49656;PMS5003;71194;38.900;-77.124;2023-07-28T15:35:40;23;20;
49656;PMS5003;71194;38.900;-77.124;2023-07-28T15:38:08;21;18;
49656;PMS5003;71194;38.900;-77.124;2023-07-28T15:40:35;17;14;
49656;PMS5003;71194;38.900;-77.124;2023-07-28T15:43:03;23;21;
49656;PMS5003;71194;38.900;-77.124;2023-07-28T15:45:31;30;26;
49656;PMS5003;71194;38.900;-77.124;2023-07-28T15:47:59;26;26;
49656;PMS5003;71194;38.900;-77.124;2023-07-28T15:50:27;31;27;
49656;PMS5003;71194;38.900;-77.124;2023-07-28T15:52:55;21;18;
49656;PMS5003;71194;38.900;-77.124;2023-07-28T15:55:23;23;21;
49656;PMS5003;71194;38.900;-77.124;2023-07-28T15:57:51;31;25;
49656;PMS5003;71194;38.900;-77.124;2023-07-28T16:00:18;26;24;
49656;PMS5003;71194;38.900;-77.124;2023-07-28T16:02:46;23;21;
49656;PMS5003;71194;38.900;-77.124;2023-07-28T16:05:15;23;21;
49656;PMS5003;71194;38.900;-77.124;2023-07-28T16:07:42;20;19;
49656;PMS5003;71194;38.900;-77.124;2023-07-28T16:10:10;21;19;